createdAt,value
2018-08-17T00:01:31.088Z,101091.71
2018-08-17T00:03:58.683Z,101091.47
2018-08-17T00:06:26.215Z,101090.25
2018-08-17T00:08:53.709Z,101074.36
2018-08-17T00:11:21.456Z,101084.22
2018-08-17T00:13:48.971Z,101082.52
2018-08-17T00:16:16.437Z,101079.95
2018-08-17T00:18:44.427Z,101084.49
2018-08-17T00:21:11.876Z,101079.95
2018-08-17T00:23:39.346Z,101084.98
2018-08-17T00:26:07.104Z,101084.27
2018-08-17T00:28:35.610Z,101072.60
2018-08-17T00:31:03.177Z,101070.90
2018-08-17T00:33:30.787Z,101069.16
2018-08-17T00:35:58.307Z,101066.11
2018-08-17T00:38:25.792Z,101064.77
2018-08-17T00:40:53.518Z,101066.11
2018-08-17T00:43:20.947Z,101066.98
2018-08-17T00:45:48.492Z,101065.25
2018-08-17T00:48:16.162Z,101060.84
2018-08-17T00:50:43.678Z,101065.03
2018-08-17T00:53:11.176Z,101058.77
2018-08-17T00:55:38.893Z,101064.69
2018-08-17T00:58:06.435Z,101065.38
2018-08-17T01:00:33.940Z,101057.14
2018-08-17T01:03:01.604Z,101064.28
2018-08-17T01:05:29.079Z,101054.44
2018-08-17T01:07:56.575Z,101065.11
2018-08-17T01:10:24.361Z,101071.03
2018-08-17T01:12:51.822Z,101057.14
2018-08-17T01:15:19.327Z,101077.06
2018-08-17T01:17:46.955Z,101064.90
2018-08-17T01:20:14.604Z,101065.38
2018-08-17T01:22:42.333Z,101065.38
2018-08-17T01:25:09.955Z,101066.38
2018-08-17T01:27:37.387Z,101069.57
2018-08-17T01:30:05.374Z,101073.41
2018-08-17T01:32:33.117Z,101063.57
2018-08-17T01:35:00.580Z,101065.44
2018-08-17T01:37:28.201Z,101061.00
2018-08-17T01:39:55.949Z,101057.68
2018-08-17T01:42:23.409Z,101048.61
2018-08-17T01:44:50.895Z,101052.66
2018-08-17T01:47:18.590Z,101047.88
2018-08-17T01:49:46.068Z,101044.17
2018-08-17T01:52:13.539Z,101042.95
2018-08-17T01:54:41.200Z,101045.17
2018-08-17T01:57:08.821Z,101043.95
2018-08-17T01:59:36.322Z,101043.95
2018-08-17T02:02:04.181Z,101040.52
2018-08-17T02:04:31.749Z,101038.69
2018-08-17T02:06:59.204Z,101038.69
2018-08-17T02:09:26.855Z,101036.82
2018-08-17T02:11:54.341Z,101041.88
2018-08-17T02:14:21.826Z,101043.23
2018-08-17T02:16:49.520Z,101039.31
2018-08-17T02:19:16.993Z,101042.36
2018-08-17T02:21:44.732Z,101043.95
2018-08-17T02:24:12.311Z,101045.31
2018-08-17T02:26:39.782Z,101042.61
2018-08-17T02:29:07.239Z,101038.42
2018-08-17T02:31:34.870Z,101034.37
2018-08-17T02:34:02.376Z,101028.34
2018-08-17T02:36:29.873Z,101035.31
2018-08-17T02:38:57.548Z,101032.12
2018-08-17T02:41:24.991Z,101032.48
2018-08-17T02:43:52.404Z,101024.37
2018-08-17T02:46:20.128Z,101018.96
2018-08-17T02:48:47.617Z,101021.80
2018-08-17T02:51:15.090Z,101021.67
2018-08-17T02:53:42.737Z,101023.50
2018-08-17T02:56:10.247Z,101022.53
2018-08-17T02:58:37.726Z,101018.48
2018-08-17T03:01:05.505Z,101021.53
2018-08-17T03:03:32.992Z,101025.09
2018-08-17T03:06:00.428Z,101026.80
2018-08-17T03:08:28.089Z,101018.20
2018-08-17T03:10:55.802Z,101024.45
2018-08-17T03:13:23.258Z,101020.26
2018-08-17T03:15:50.898Z,101017.42
2018-08-17T03:18:18.360Z,101005.78
2018-08-17T03:20:45.790Z,101007.47
2018-08-17T03:23:13.632Z,101013.75
2018-08-17T03:25:41.082Z,101010.17
2018-08-17T03:28:08.552Z,101003.42
2018-08-17T03:30:36.260Z,101018.77
2018-08-17T03:33:03.792Z,101012.02
2018-08-17T03:35:31.301Z,101014.72
2018-08-17T03:37:59.024Z,101012.02
2018-08-17T03:40:26.531Z,101012.53
2018-08-17T03:42:54.025Z,101016.06
2018-08-17T03:45:21.699Z,101010.04
2018-08-17T03:47:49.168Z,101017.14
2018-08-17T03:50:16.674Z,101006.72
2018-08-17T03:52:44.354Z,101015.30
2018-08-17T03:55:11.853Z,101014.82
2018-08-17T03:57:39.433Z,101008.90
2018-08-17T04:00:07.153Z,101015.66
2018-08-17T04:02:34.621Z,101012.95
2018-08-17T04:05:02.155Z,101015.03
2018-08-17T04:07:29.787Z,101009.14
2018-08-17T04:09:57.241Z,101017.60
2018-08-17T04:12:24.696Z,101021.17
2018-08-17T04:14:52.347Z,101025.57
2018-08-17T04:17:19.830Z,101026.79
2018-08-17T04:19:47.291Z,101036.73
2018-08-17T04:22:14.985Z,101031.19
2018-08-17T04:24:42.672Z,101031.19
2018-08-17T04:27:10.317Z,101030.70
2018-08-17T04:29:38.016Z,101027.00
2018-08-17T04:32:05.850Z,101023.67
2018-08-17T04:34:33.401Z,101012.68
2018-08-17T04:37:01.136Z,101025.02
2018-08-17T04:39:28.627Z,101022.67
2018-08-17T04:41:56.090Z,101022.19
2018-08-17T04:44:23.641Z,101024.75
2018-08-17T04:46:51.312Z,101035.91
2018-08-17T04:49:18.857Z,101025.83
2018-08-17T04:51:46.658Z,101020.83
2018-08-17T04:54:14.172Z,101007.52
2018-08-17T04:56:41.636Z,101019.55
2018-08-17T04:59:09.255Z,101009.47
2018-08-17T05:01:36.702Z,101015.70
2018-08-17T05:04:04.179Z,101012.17
2018-08-17T05:06:32.100Z,101003.41
2018-08-17T05:08:59.619Z,100999.73
2018-08-17T05:11:27.189Z,100998.09
2018-08-17T05:13:54.918Z,100985.80
2018-08-17T05:16:22.394Z,100983.64
2018-08-17T05:18:49.908Z,100980.66
2018-08-17T05:21:17.627Z,100985.78
2018-08-17T05:23:45.102Z,100988.59
2018-08-17T05:26:12.965Z,100981.06
2018-08-17T05:28:40.631Z,100986.33
2018-08-17T05:31:08.215Z,100983.48
2018-08-17T05:33:35.710Z,100979.63
2018-08-17T05:36:03.402Z,100977.27
2018-08-17T05:38:30.871Z,100984.75
2018-08-17T05:40:58.426Z,100984.61
2018-08-17T05:43:25.976Z,100981.77
2018-08-17T05:45:53.461Z,100978.92
2018-08-17T05:48:20.955Z,100981.34
2018-08-17T05:50:48.616Z,100979.84
2018-08-17T05:53:16.114Z,100987.97
2018-08-17T05:55:43.585Z,100993.86
2018-08-17T05:58:11.147Z,100982.55
2018-08-17T06:00:38.638Z,100994.73
2018-08-17T06:03:06.218Z,100994.88
2018-08-17T06:05:33.988Z,100970.38
2018-08-17T06:08:01.492Z,100995.36
2018-08-17T06:10:29.157Z,100988.25
2018-08-17T06:12:56.786Z,100984.82
2018-08-17T06:15:24.246Z,100990.23
2018-08-17T06:17:51.712Z,100992.45
2018-08-17T06:20:19.449Z,100978.20
2018-08-17T06:22:46.992Z,100984.12
2018-08-17T06:25:14.599Z,100988.81
2018-08-17T06:27:42.678Z,100986.45
2018-08-17T06:30:11.786Z,100987.81
2018-08-17T06:32:39.415Z,100981.42
2018-08-17T06:35:08.454Z,100987.67
2018-08-17T06:37:35.895Z,100987.67
2018-08-17T06:40:03.547Z,100988.53
2018-08-17T06:42:31.440Z,100988.73
2018-08-17T06:44:58.925Z,100977.42
2018-08-17T06:47:26.438Z,100975.94
2018-08-17T06:49:54.179Z,100978.02
2018-08-17T06:52:21.659Z,100976.14
2018-08-17T06:54:49.097Z,100979.56
2018-08-17T06:57:16.735Z,100983.48
2018-08-17T06:59:44.206Z,100983.97
2018-08-17T07:02:11.688Z,100975.86
2018-08-17T07:04:39.331Z,100975.86
2018-08-17T07:07:06.918Z,100979.28
2018-08-17T07:09:34.479Z,100989.09
2018-08-17T07:12:05.106Z,100981.84
2018-08-17T07:14:32.640Z,100989.48
2018-08-17T07:17:00.163Z,100987.25
2018-08-17T07:19:27.839Z,100989.48
2018-08-17T07:21:55.327Z,100981.12
2018-08-17T07:24:22.801Z,100974.02
2018-08-17T07:26:50.590Z,100978.70
2018-08-17T07:29:18.352Z,100979.22
2018-08-17T07:31:45.794Z,100974.30
2018-08-17T07:34:13.503Z,100978.36
2018-08-17T07:36:41.022Z,100970.09
2018-08-17T07:40:11.511Z,100973.14
2018-08-17T07:42:38.970Z,100969.47
2018-08-17T07:45:06.827Z,100978.27
2018-08-17T07:47:34.600Z,100976.01
2018-08-17T07:50:02.113Z,100981.52
2018-08-17T07:52:29.607Z,100983.27
2018-08-17T07:54:57.329Z,100975.59
2018-08-17T07:57:24.888Z,100971.72
2018-08-17T07:59:52.383Z,100965.68
2018-08-17T08:02:20.014Z,100964.52
2018-08-17T08:04:47.503Z,100975.59
2018-08-17T08:07:14.995Z,100971.38
2018-08-17T08:09:42.647Z,100974.47
2018-08-17T08:12:10.170Z,100972.25
2018-08-17T08:14:37.701Z,100980.22
2018-08-17T08:17:05.634Z,100969.77
2018-08-17T08:19:33.054Z,100971.95
2018-08-17T08:22:00.552Z,100975.87
2018-08-17T08:24:28.238Z,100968.95
2018-08-17T08:26:55.708Z,100962.56
2018-08-17T08:31:56.684Z,100969.81
2018-08-17T08:34:24.149Z,100972.58
2018-08-17T08:36:51.673Z,100974.99
2018-08-17T08:39:19.436Z,100971.65
2018-08-17T08:41:46.910Z,100967.44
2018-08-17T08:44:14.414Z,100972.71
2018-08-17T08:46:42.112Z,100973.43
2018-08-17T08:49:09.598Z,100977.55
2018-08-17T08:51:37.077Z,100979.95
2018-08-17T08:54:04.827Z,100980.53
2018-08-17T08:56:32.300Z,100977.03
2018-08-17T08:58:59.801Z,100972.53
2018-08-17T09:01:27.524Z,100983.22
2018-08-17T09:03:55.136Z,100977.80
2018-08-17T09:06:23.219Z,100961.89
2018-08-17T09:08:50.845Z,100965.31
2018-08-17T09:11:18.326Z,100968.22
2018-08-17T09:13:45.805Z,100968.94
2018-08-17T09:16:13.560Z,100951.02
2018-08-17T09:18:41.055Z,100958.48
2018-08-17T09:21:08.581Z,100950.73
2018-08-17T09:23:36.242Z,100951.11
2018-08-17T09:26:03.808Z,100952.88
2018-08-17T09:28:31.212Z,100934.81
2018-08-17T09:30:58.891Z,100941.81
2018-08-17T09:33:26.616Z,100959.36
2018-08-17T09:35:54.062Z,100943.28
2018-08-17T09:38:21.731Z,100948.40
2018-08-17T09:40:49.210Z,100964.36
2018-08-17T09:43:16.680Z,100950.47
2018-08-17T09:45:44.305Z,100955.40
2018-08-17T09:48:11.833Z,100954.05
2018-08-17T09:50:39.375Z,100942.67
2018-08-17T09:53:06.946Z,100945.91
2018-08-17T09:55:34.417Z,100950.50
2018-08-17T09:58:01.996Z,100957.20
2018-08-17T10:00:35.029Z,100953.17
2018-08-17T10:05:14.194Z,100957.80
2018-08-17T10:07:47.209Z,100953.68
2018-08-17T10:10:19.124Z,100958.09
2018-08-17T10:12:47.536Z,100966.41
2018-08-17T10:15:15.011Z,100962.19
2018-08-17T10:17:42.754Z,100952.36
2018-08-17T10:20:15.736Z,100975.11
2018-08-17T10:22:43.498Z,100967.47
2018-08-17T10:25:19.997Z,100958.98
2018-08-17T10:27:48.574Z,100966.78
2018-08-17T10:30:16.711Z,100961.36
2018-08-17T10:33:01.989Z,100979.97
2018-08-17T10:35:32.691Z,100962.34
2018-08-17T10:38:02.559Z,100975.38
2018-08-17T10:40:30.062Z,100990.23
2018-08-17T10:42:58.954Z,100984.77
2018-08-17T10:45:26.966Z,100991.51
2018-08-17T10:47:54.879Z,100961.45
2018-08-17T10:50:23.640Z,100986.39
2018-08-17T10:52:54.268Z,100984.88
2018-08-17T10:55:23.032Z,100978.59
2018-08-17T10:57:50.877Z,100980.29
2018-08-17T11:00:19.540Z,100973.36
2018-08-17T11:02:53.568Z,100979.65
2018-08-17T11:05:21.088Z,100982.05
2018-08-17T11:07:48.860Z,100981.94
2018-08-17T11:10:16.809Z,100974.55
2018-08-17T11:12:45.349Z,100982.17
2018-08-17T11:15:12.797Z,100982.30
2018-08-17T11:17:41.282Z,100974.16
2018-08-17T11:20:08.852Z,100971.78
2018-08-17T11:22:36.635Z,100975.23
2018-08-17T11:25:05.821Z,100972.91
2018-08-17T11:27:33.636Z,100969.41
2018-08-17T11:30:01.156Z,100968.28
2018-08-17T11:32:28.932Z,100963.34
2018-08-17T11:34:56.412Z,100968.56
2018-08-17T11:37:24.211Z,100973.48
2018-08-17T11:39:57.233Z,100976.30
2018-08-17T11:42:24.868Z,100986.11
2018-08-17T11:44:52.395Z,100982.19
2018-08-17T11:47:20.120Z,100982.04
2018-08-17T11:49:47.694Z,100977.87
2018-08-17T11:52:15.170Z,100976.03
2018-08-17T11:54:42.675Z,100973.87
2018-08-17T11:57:10.307Z,100979.97
2018-08-17T11:59:43.760Z,100974.20
2018-08-17T12:02:11.742Z,100976.94
2018-08-17T12:04:39.927Z,100972.22
2018-08-17T12:07:07.521Z,100975.48
2018-08-17T12:09:35.163Z,100979.89
2018-08-17T12:12:02.637Z,100973.12
2018-08-17T12:14:30.130Z,100983.34
2018-08-17T12:16:57.664Z,100975.25
2018-08-17T12:19:25.088Z,100969.99
2018-08-17T12:21:52.559Z,100971.52
2018-08-17T12:24:20.142Z,100979.33
2018-08-17T12:26:53.108Z,100980.30
2018-08-17T12:29:20.828Z,100980.59
2018-08-17T12:31:48.432Z,100972.22
2018-08-17T12:34:16.288Z,100972.35
2018-08-17T12:36:43.886Z,100970.62
2018-08-17T12:39:11.461Z,100967.97
2018-08-17T12:41:38.969Z,100962.94
2018-08-17T12:44:06.707Z,100955.83
2018-08-17T12:46:34.198Z,100954.83
2018-08-17T12:49:01.655Z,100963.84
2018-08-17T12:51:29.403Z,100945.54
2018-08-17T12:53:56.867Z,100943.78
2018-08-17T12:56:24.381Z,100950.75
2018-08-17T12:58:52.107Z,100947.55
2018-08-17T13:01:19.556Z,100945.53
2018-08-17T13:03:47.078Z,100941.09
2018-08-17T13:06:14.815Z,100945.00
2018-08-17T13:08:42.324Z,100929.39
2018-08-17T13:11:09.869Z,100923.30
2018-08-17T13:13:37.558Z,100932.28
2018-08-17T13:16:06.358Z,100935.55
2018-08-17T13:18:35.148Z,100937.41
2018-08-17T13:21:02.799Z,100924.84
2018-08-17T13:23:30.253Z,100931.30
2018-08-17T13:25:57.743Z,100932.28
2018-08-17T13:28:26.003Z,100952.34
2018-08-17T13:30:53.410Z,100943.63
2018-08-17T13:33:20.846Z,100946.25
2018-08-17T13:35:48.505Z,100949.77
2018-08-17T13:38:15.955Z,100927.81
2018-08-17T13:40:43.759Z,100954.73
2018-08-17T13:43:11.302Z,100931.70
2018-08-17T13:45:38.882Z,100945.30
2018-08-17T13:48:06.436Z,100948.31
2018-08-17T13:50:34.152Z,100958.78
2018-08-17T13:53:01.604Z,100953.64
2018-08-17T13:55:29.402Z,100949.33
2018-08-17T13:57:57.176Z,100967.06
2018-08-17T14:00:24.660Z,100961.45
2018-08-17T14:02:52.217Z,100955.23
2018-08-17T14:05:19.988Z,100963.21
2018-08-17T14:07:47.420Z,100957.94
2018-08-17T14:10:15.031Z,100965.34
2018-08-17T14:12:42.655Z,100948.47
2018-08-17T14:15:10.328Z,100958.13
2018-08-17T14:17:38.375Z,100964.42
2018-08-17T14:20:12.122Z,100960.66
2018-08-17T14:22:39.623Z,100963.13
2018-08-17T14:25:07.968Z,100948.67
2018-08-17T14:27:35.472Z,100970.34
2018-08-17T14:30:04.013Z,100956.30
2018-08-17T14:32:31.451Z,100953.07
2018-08-17T14:34:58.981Z,100962.16
2018-08-17T14:37:26.482Z,100953.61
2018-08-17T14:39:53.955Z,100963.22
2018-08-17T14:42:21.914Z,100958.75
2018-08-17T14:44:49.600Z,100967.48
2018-08-17T14:47:17.079Z,100958.60
2018-08-17T14:49:44.614Z,100964.97
2018-08-17T14:52:12.303Z,100961.12
2018-08-17T14:54:39.832Z,100946.67
2018-08-17T14:57:07.348Z,100957.47
2018-08-17T14:59:35.020Z,100954.69
2018-08-17T15:02:02.587Z,100948.77
2018-08-17T15:04:30.968Z,100948.97
2018-08-17T15:06:58.740Z,100952.05
2018-08-17T15:09:26.292Z,100948.47
2018-08-17T15:11:53.764Z,100952.05
2018-08-17T15:14:21.401Z,100957.09
2018-08-17T15:16:48.904Z,100953.97
2018-08-17T15:19:16.391Z,100958.86
2018-08-17T15:21:44.061Z,100957.95
2018-08-17T15:24:11.484Z,100947.26
2018-08-17T15:26:39.118Z,100938.75
2018-08-17T15:29:06.819Z,100944.47
2018-08-17T15:31:34.322Z,100945.83
2018-08-17T15:34:01.794Z,100946.84
2018-08-17T15:36:29.337Z,100938.71
2018-08-17T15:38:56.895Z,100941.08
2018-08-17T15:41:24.444Z,100940.36
2018-08-17T15:43:52.049Z,100941.38
2018-08-17T15:46:19.700Z,100928.77
2018-08-17T15:48:55.010Z,100937.67
2018-08-17T15:51:22.484Z,100941.02
2018-08-17T15:53:50.164Z,100927.92
2018-08-17T15:56:17.936Z,100920.24
2018-08-17T15:58:45.458Z,100920.39
2018-08-17T16:01:13.247Z,100939.16
2018-08-17T16:03:40.879Z,100935.88
2018-08-17T16:06:08.578Z,100934.52
2018-08-17T16:08:36.060Z,100939.74
2018-08-17T16:11:03.907Z,100934.12
2018-08-17T16:13:31.374Z,100931.05
2018-08-17T16:15:58.889Z,100922.09
2018-08-17T16:18:26.580Z,100919.53
2018-08-17T16:20:54.058Z,100925.88
2018-08-17T16:23:21.486Z,100916.55
2018-08-17T16:25:49.185Z,100913.46
2018-08-17T16:28:16.668Z,100925.10
2018-08-17T16:30:44.129Z,100929.42
2018-08-17T16:33:11.841Z,100924.16
2018-08-17T16:35:39.437Z,100921.30
2018-08-17T16:38:07.034Z,100910.84
2018-08-17T16:40:42.350Z,100917.01
2018-08-17T16:43:09.870Z,100898.50
2018-08-17T16:45:37.569Z,100899.16
2018-08-17T16:48:06.213Z,100904.16
2018-08-17T16:50:33.694Z,100915.06
2018-08-17T16:53:01.207Z,100903.95
2018-08-17T16:55:29.027Z,100900.33
2018-08-17T16:57:56.493Z,100893.48
2018-08-17T17:00:24.071Z,100905.80
2018-08-17T17:02:51.758Z,100894.44
2018-08-17T17:05:19.231Z,100895.06
2018-08-17T17:07:46.839Z,100900.62
2018-08-17T17:10:14.695Z,100890.80
2018-08-17T17:12:42.200Z,100886.52
2018-08-17T17:15:15.506Z,100897.33
2018-08-17T17:17:49.198Z,100890.37
2018-08-17T17:20:16.782Z,100890.31
2018-08-17T17:22:44.332Z,100887.23
2018-08-17T17:25:17.888Z,100892.64
2018-08-17T17:27:45.685Z,100882.59
2018-08-17T17:30:13.151Z,100900.31
2018-08-17T17:32:40.797Z,100898.27
2018-08-17T17:35:08.380Z,100885.72
2018-08-17T17:37:35.907Z,100887.73
2018-08-17T17:40:03.786Z,100893.92
2018-08-17T17:42:31.285Z,100894.20
2018-08-17T17:44:58.782Z,100892.85
2018-08-17T17:47:26.922Z,100894.63
2018-08-17T17:49:54.407Z,100896.41
2018-08-17T17:52:21.902Z,100888.37
2018-08-17T17:54:49.559Z,100898.56
2018-08-17T17:57:17.091Z,100890.22
2018-08-17T17:59:52.890Z,100899.62
2018-08-17T18:02:21.028Z,100903.08
2018-08-17T18:04:48.515Z,100895.63
2018-08-17T18:07:16.024Z,100887.67
2018-08-17T18:09:43.766Z,100892.20
2018-08-17T18:12:11.371Z,100891.72
2018-08-17T18:14:38.920Z,100895.39
2018-08-17T18:17:06.944Z,100881.02
2018-08-17T18:19:34.449Z,100897.02
2018-08-17T18:22:01.973Z,100898.52
2018-08-17T18:24:29.665Z,100898.45
2018-08-17T18:26:57.209Z,100899.07
2018-08-17T18:29:24.631Z,100900.42
2018-08-17T18:31:52.207Z,100893.32
2018-08-17T18:34:19.714Z,100901.56
2018-08-17T18:36:47.203Z,100904.99
2018-08-17T18:39:15.242Z,100911.37
2018-08-17T18:41:42.924Z,100903.41
2018-08-17T18:44:11.228Z,100909.67
2018-08-17T18:46:38.908Z,100908.45
2018-08-17T18:49:06.538Z,100912.02
2018-08-17T18:51:34.317Z,100897.16
2018-08-17T18:54:01.811Z,100893.95
2018-08-17T18:56:29.349Z,100880.95
2018-08-17T18:58:57.169Z,100892.11
2018-08-17T19:01:24.757Z,100894.09
2018-08-17T19:03:52.275Z,100898.66
2018-08-17T19:06:19.762Z,100895.85
2018-08-17T19:08:47.427Z,100897.69
2018-08-17T19:11:14.864Z,100901.87
2018-08-17T19:13:42.404Z,100907.66
2018-08-17T19:16:10.005Z,100896.34
2018-08-17T19:18:37.575Z,100897.20
2018-08-17T19:21:07.215Z,100908.88
2018-08-17T19:23:35.062Z,100898.41
2018-08-17T19:26:02.534Z,100913.27
2018-08-17T19:28:30.000Z,100911.06
2018-08-17T19:30:57.713Z,100904.44
2018-08-17T19:33:25.237Z,100895.98
2018-08-17T19:35:52.723Z,100896.99
2018-08-17T19:38:20.408Z,100892.94
2018-08-17T19:40:47.889Z,100886.05
2018-08-17T19:43:15.360Z,100886.19
2018-08-17T19:45:43.024Z,100884.45
2018-08-17T19:48:10.536Z,100873.30
2018-08-17T19:50:38.217Z,100868.04
2018-08-17T19:53:06.129Z,100863.13
2018-08-17T19:55:33.589Z,100872.44
2018-08-17T19:58:01.117Z,100870.73
2018-08-17T20:00:28.815Z,100881.69
2018-08-17T20:02:56.275Z,100894.11
2018-08-17T20:05:23.774Z,100886.64
2018-08-17T20:07:51.511Z,100893.04
2018-08-17T20:10:18.995Z,100870.91
2018-08-17T20:12:46.478Z,100887.78
2018-08-17T20:15:14.236Z,100881.64
2018-08-17T20:17:47.620Z,100874.89
2018-08-17T20:20:15.064Z,100870.01
2018-08-17T20:22:42.849Z,100867.45
2018-08-17T20:25:12.920Z,100882.30
2018-08-17T20:27:40.476Z,100877.17
2018-08-17T20:30:13.381Z,100875.31
2018-08-17T20:32:41.208Z,100869.21
2018-08-17T20:35:08.674Z,100871.39
2018-08-17T20:37:41.792Z,100873.27
2018-08-17T20:40:09.568Z,100868.83
2018-08-17T20:42:37.082Z,100867.86
2018-08-17T20:45:05.418Z,100867.34
2018-08-17T20:47:35.640Z,100868.20
2018-08-17T20:50:04.414Z,100861.11
2018-08-17T20:52:32.060Z,100863.08
2018-08-17T20:54:59.735Z,100871.08
2018-08-17T20:57:27.210Z,100858.85
2018-08-17T20:59:54.742Z,100855.56
2018-08-17T21:02:22.344Z,100862.97
2018-08-17T21:04:49.855Z,100864.86
2018-08-17T21:07:17.358Z,100870.16
2018-08-17T21:09:45.017Z,100876.30
2018-08-17T21:12:12.506Z,100878.27
2018-08-17T21:14:39.950Z,100881.59
2018-08-17T21:17:07.878Z,100883.21
2018-08-17T21:19:39.531Z,100885.83
2018-08-17T21:22:07.408Z,100881.19
2018-08-17T21:24:35.163Z,100890.42
2018-08-17T21:27:02.661Z,100886.64
2018-08-17T21:29:30.425Z,100886.98
2018-08-17T21:31:58.043Z,100887.98
2018-08-17T21:34:25.639Z,100886.98
2018-08-17T21:36:53.960Z,100875.19
2018-08-17T21:39:21.590Z,100886.12
2018-08-17T21:41:49.302Z,100888.33
2018-08-17T21:44:17.989Z,100886.77
2018-08-17T21:47:05.810Z,100890.56
2018-08-17T21:49:33.965Z,100893.78
2018-08-17T21:52:03.956Z,100890.56
2018-08-17T21:54:32.784Z,100891.92
2018-08-17T21:57:01.107Z,100891.70
2018-08-17T21:59:49.060Z,100891.22
2018-08-17T22:02:17.061Z,100902.02
2018-08-17T22:04:44.556Z,100896.23
2018-08-17T22:07:17.673Z,100895.88
2018-08-17T22:09:45.239Z,100888.27
2018-08-17T22:12:13.119Z,100890.75
2018-08-17T22:14:40.580Z,100893.58
2018-08-17T22:17:18.065Z,100891.88
2018-08-17T22:19:45.599Z,100893.84
2018-08-17T22:22:13.115Z,100891.42
2018-08-17T22:24:46.035Z,100881.37
2018-08-17T22:27:15.089Z,100885.20
2018-08-17T22:29:44.125Z,100887.16
2018-08-17T22:32:11.662Z,100884.13
2018-08-17T22:34:39.178Z,100886.08
2018-08-17T22:37:06.673Z,100878.86
2018-08-17T22:39:34.179Z,100878.13
2018-08-17T22:42:02.046Z,100886.21
2018-08-17T22:44:29.403Z,100886.83
2018-08-17T22:47:08.146Z,100884.78
2018-08-17T22:49:35.608Z,100889.30
2018-08-17T22:52:04.529Z,100884.53
2018-08-17T22:54:32.567Z,100890.92
2018-08-17T22:57:00.209Z,100896.09
2018-08-17T22:59:27.702Z,100897.70
2018-08-17T23:01:55.301Z,100899.05
2018-08-17T23:04:22.808Z,100902.36
2018-08-17T23:06:50.329Z,100909.71
2018-08-17T23:09:17.992Z,100914.40
2018-08-17T23:11:45.457Z,100913.28
2018-08-17T23:14:14.520Z,100920.15
2018-08-17T23:16:42.840Z,100920.66
2018-08-17T23:19:10.276Z,100912.70
2018-08-17T23:21:38.106Z,100913.45
2018-08-17T23:24:05.955Z,100911.62
2018-08-17T23:26:33.471Z,100913.73
2018-08-17T23:29:00.914Z,100911.43
2018-08-17T23:31:28.595Z,100913.00
2018-08-17T23:33:56.475Z,100913.26
2018-08-17T23:36:23.982Z,100920.25
2018-08-17T23:38:51.696Z,100917.30
2018-08-17T23:41:19.247Z,100917.07
2018-08-17T23:43:46.704Z,100919.89
2018-08-17T23:46:14.313Z,100915.59
2018-08-17T23:48:41.755Z,100916.23
2018-08-17T23:51:09.264Z,100916.10
2018-08-17T23:53:37.038Z,100912.83
2018-08-17T23:56:04.531Z,100912.56
2018-08-17T23:58:33.274Z,100908.30
